sensor_id;sensor_type;location;lat;lon;timestamp;pressure;altitude;pressure_sealevel;temperature;humidity
64844;BME280;51310;52.198;5.422;2023-02-13T00:02:16;103558.53;;;5.86;100.00
64844;BME280;51310;52.198;5.422;2023-02-13T00:04:42;103560.63;;;5.83;100.00
64844;BME280;51310;52.198;5.422;2023-02-13T00:07:10;103554.31;;;5.81;100.00
64844;BME280;51310;52.198;5.422;2023-02-13T00:09:37;103557.75;;;5.76;100.00
64844;BME280;51310;52.198;5.422;2023-02-13T00:12:05;103552.16;;;5.73;100.00
64844;BME280;51310;52.198;5.422;2023-02-13T00:14:37;103548.69;;;5.72;100.00
64844;BME280;51310;52.198;5.422;2023-02-13T00:17:05;103553.34;;;5.75;100.00
64844;BME280;51310;52.198;5.422;2023-02-13T00:19:31;103543.13;;;5.75;100.00
64844;BME280;51310;52.198;5.422;2023-02-13T00:21:57;103553.53;;;5.71;100.00
64844;BME280;51310;52.198;5.422;2023-02-13T00:24:23;103544.53;;;5.79;100.00
64844;BME280;51310;52.198;5.422;2023-02-13T00:26:48;103539.00;;;5.81;100.00
64844;BME280;51310;52.198;5.422;2023-02-13T00:29:14;103541.09;;;5.84;100.00
64844;BME280;51310;52.198;5.422;2023-02-13T00:31:40;103543.25;;;5.92;100.00
64844;BME280;51310;52.198;5.422;2023-02-13T00:34:06;103541.63;;;5.92;100.00
64844;BME280;51310;52.198;5.422;2023-02-13T00:36:32;103546.41;;;5.80;100.00
64844;BME280;51310;52.198;5.422;2023-02-13T00:38:57;103533.44;;;5.89;100.00
64844;BME280;51310;52.198;5.422;2023-02-13T00:41:23;103536.38;;;5.75;100.00
64844;BME280;51310;52.198;5.422;2023-02-13T00:43:49;103538.69;;;5.74;100.00
64844;BME280;51310;52.198;5.422;2023-02-13T00:46:16;103531.47;;;5.71;100.00
64844;BME280;51310;52.198;5.422;2023-02-13T00:48:42;103532.66;;;5.73;100.00
64844;BME280;51310;52.198;5.422;2023-02-13T00:51:09;103532.91;;;5.75;100.00
64844;BME280;51310;52.198;5.422;2023-02-13T00:53:36;103529.91;;;5.78;100.00
64844;BME280;51310;52.198;5.422;2023-02-13T00:56:04;103536.13;;;5.74;100.00
64844;BME280;51310;52.198;5.422;2023-02-13T00:58:31;103530.50;;;5.65;100.00
64844;BME280;51310;52.198;5.422;2023-02-13T01:00:57;103531.19;;;5.64;100.00
64844;BME280;51310;52.198;5.422;2023-02-13T01:03:23;103534.41;;;5.63;100.00
64844;BME280;51310;52.198;5.422;2023-02-13T01:05:50;103531.47;;;5.71;100.00
64844;BME280;51310;52.198;5.422;2023-02-13T01:08:17;103531.41;;;5.66;100.00
64844;BME280;51310;52.198;5.422;2023-02-13T01:10:46;103525.88;;;5.68;100.00
64844;BME280;51310;52.198;5.422;2023-02-13T01:13:14;103534.53;;;5.74;100.00
64844;BME280;51310;52.198;5.422;2023-02-13T01:15:40;103531.53;;;5.77;100.00
64844;BME280;51310;52.198;5.422;2023-02-13T01:18:07;103530.88;;;5.84;100.00
64844;BME280;51310;52.198;5.422;2023-02-13T01:20:32;103539.66;;;5.80;100.00
64844;BME280;51310;52.198;5.422;2023-02-13T01:22:58;103535.72;;;5.82;100.00
64844;BME280;51310;52.198;5.422;2023-02-13T01:25:24;103529.25;;;5.84;100.00
64844;BME280;51310;52.198;5.422;2023-02-13T01:27:50;103535.09;;;5.89;100.00
64844;BME280;51310;52.198;5.422;2023-02-13T01:30:17;103532.25;;;5.82;100.00
64844;BME280;51310;52.198;5.422;2023-02-13T01:32:45;103527.41;;;5.83;100.00
64844;BME280;51310;52.198;5.422;2023-02-13T01:35:13;103524.50;;;5.70;100.00
64844;BME280;51310;52.198;5.422;2023-02-13T01:37:39;103520.97;;;5.64;100.00
64844;BME280;51310;52.198;5.422;2023-02-13T01:40:10;103528.13;;;5.61;100.00
64844;BME280;51310;52.198;5.422;2023-02-13T01:42:36;103527.25;;;5.66;100.00
64844;BME280;51310;52.198;5.422;2023-02-13T01:45:16;103526.09;;;5.70;100.00
64844;BME280;51310;52.198;5.422;2023-02-13T01:47:57;103525.38;;;5.65;100.00
64844;BME280;51310;52.198;5.422;2023-02-13T01:55:35;103508.31;;;5.49;100.00
64844;BME280;51310;52.198;5.422;2023-02-13T01:58:12;103515.03;;;5.48;100.00
64844;BME280;51310;52.198;5.422;2023-02-13T02:00:39;103512.97;;;5.51;100.00
64844;BME280;51310;52.198;5.422;2023-02-13T02:03:34;103511.53;;;5.48;100.00
64844;BME280;51310;52.198;5.422;2023-02-13T02:06:01;103512.06;;;5.51;100.00
64844;BME280;51310;52.198;5.422;2023-02-13T02:08:28;103506.25;;;5.52;100.00
64844;BME280;51310;52.198;5.422;2023-02-13T02:11:04;103506.25;;;5.52;100.00
64844;BME280;51310;52.198;5.422;2023-02-13T02:13:31;103502.03;;;5.47;100.00
64844;BME280;51310;52.198;5.422;2023-02-13T02:15:57;103507.63;;;5.50;100.00
64844;BME280;51310;52.198;5.422;2023-02-13T02:18:23;103504.88;;;5.54;100.00
64844;BME280;51310;52.198;5.422;2023-02-13T02:28:00;103502.25;;;5.48;100.00
64844;BME280;51310;52.198;5.422;2023-02-13T02:30:25;103505.50;;;5.47;100.00
64844;BME280;51310;52.198;5.422;2023-02-13T02:47:19;103491.91;;;5.58;100.00
64844;BME280;51310;52.198;5.422;2023-02-13T02:56:24;103492.41;;;5.67;100.00
64844;BME280;51310;52.198;5.422;2023-02-13T02:59:11;103492.22;;;5.71;100.00
64844;BME280;51310;52.198;5.422;2023-02-13T03:01:58;103494.56;;;5.75;100.00
64844;BME280;51310;52.198;5.422;2023-02-13T03:04:48;103487.09;;;5.71;100.00
64844;BME280;51310;52.198;5.422;2023-02-13T03:07:34;103488.88;;;5.61;100.00
64844;BME280;51310;52.198;5.422;2023-02-13T03:10:09;103489.78;;;5.55;100.00
64844;BME280;51310;52.198;5.422;2023-02-13T03:13:02;103496.81;;;5.68;100.00
64844;BME280;51310;52.198;5.422;2023-02-13T03:16:02;103493.59;;;5.69;100.00
64844;BME280;51310;52.198;5.422;2023-02-13T03:18:54;103495.44;;;5.64;100.00
64844;BME280;51310;52.198;5.422;2023-02-13T03:25:10;103497.13;;;5.75;100.00
64844;BME280;51310;52.198;5.422;2023-02-13T03:27:48;103498.13;;;5.87;100.00
64844;BME280;51310;52.198;5.422;2023-02-13T03:31:02;103490.38;;;5.75;100.00
64844;BME280;51310;52.198;5.422;2023-02-13T03:42:06;103491.91;;;5.58;100.00
64844;BME280;51310;52.198;5.422;2023-02-13T03:44:54;103494.44;;;5.58;100.00
64844;BME280;51310;52.198;5.422;2023-02-13T03:47:43;103490.78;;;5.62;100.00
64844;BME280;51310;52.198;5.422;2023-02-13T03:50:13;103491.84;;;5.52;100.00
64844;BME280;51310;52.198;5.422;2023-02-13T03:52:52;103489.47;;;5.48;100.00
64844;BME280;51310;52.198;5.422;2023-02-13T03:55:30;103488.41;;;5.58;100.00
64844;BME280;51310;52.198;5.422;2023-02-13T03:58:30;103479.44;;;5.71;100.00
64844;BME280;51310;52.198;5.422;2023-02-13T04:01:21;103491.09;;;5.74;100.00
64844;BME280;51310;52.198;5.422;2023-02-13T04:07:07;103489.94;;;5.78;100.00
64844;BME280;51310;52.198;5.422;2023-02-13T04:09:40;103484.03;;;5.68;100.00
64844;BME280;51310;52.198;5.422;2023-02-13T04:12:17;103483.97;;;5.57;100.00
64844;BME280;51310;52.198;5.422;2023-02-13T04:14:57;103480.75;;;5.58;100.00
64844;BME280;51310;52.198;5.422;2023-02-13T04:18:01;103490.53;;;5.66;100.00
64844;BME280;51310;52.198;5.422;2023-02-13T04:20:31;103489.41;;;5.69;100.00
64844;BME280;51310;52.198;5.422;2023-02-13T04:23:08;103495.03;;;5.72;100.00
64844;BME280;51310;52.198;5.422;2023-02-13T04:25:36;103489.69;;;5.76;100.00
64844;BME280;51310;52.198;5.422;2023-02-13T04:28:03;103487.25;;;5.61;100.00
64844;BME280;51310;52.198;5.422;2023-02-13T04:30:30;103486.84;;;5.69;100.00
64844;BME280;51310;52.198;5.422;2023-02-13T04:32:56;103489.16;;;5.68;100.00
64844;BME280;51310;52.198;5.422;2023-02-13T04:35:22;103483.84;;;5.72;100.00
64844;BME280;51310;52.198;5.422;2023-02-13T04:37:48;103480.22;;;5.87;100.00
64844;BME280;51310;52.198;5.422;2023-02-13T04:40:13;103481.09;;;5.76;100.00
64844;BME280;51310;52.198;5.422;2023-02-13T04:42:39;103483.84;;;5.72;100.00
64844;BME280;51310;52.198;5.422;2023-02-13T04:45:05;103476.69;;;5.75;100.00
64844;BME280;51310;52.198;5.422;2023-02-13T04:47:31;103476.69;;;5.75;100.00
64844;BME280;51310;52.198;5.422;2023-02-13T04:49:56;103479.00;;;5.73;100.00
64844;BME280;51310;52.198;5.422;2023-02-13T04:52:22;103480.38;;;5.71;100.00
64844;BME280;51310;52.198;5.422;2023-02-13T04:54:48;103475.31;;;5.77;100.00
64844;BME280;51310;52.198;5.422;2023-02-13T04:57:13;103479.25;;;5.75;100.00
64844;BME280;51310;52.198;5.422;2023-02-13T04:59:39;103472.97;;;5.73;100.00
64844;BME280;51310;52.198;5.422;2023-02-13T05:02:05;103470.66;;;5.74;100.00
64844;BME280;51310;52.198;5.422;2023-02-13T05:04:32;103473.22;;;5.74;100.00
64844;BME280;51310;52.198;5.422;2023-02-13T05:06:57;103468.31;;;5.76;100.00
64844;BME280;51310;52.198;5.422;2023-02-13T05:09:23;103463.25;;;5.82;100.00
64844;BME280;51310;52.198;5.422;2023-02-13T05:11:52;103463.50;;;5.83;100.00
64844;BME280;51310;52.198;5.422;2023-02-13T05:14:18;103453.69;;;5.75;100.00
64844;BME280;51310;52.198;5.422;2023-02-13T05:16:44;103456.66;;;5.67;100.00
64844;BME280;51310;52.198;5.422;2023-02-13T05:19:10;103459.47;;;5.74;100.00
64844;BME280;51310;52.198;5.422;2023-02-13T05:21:36;103466.47;;;5.75;100.00
64844;BME280;51310;52.198;5.422;2023-02-13T05:24:20;103458.75;;;5.69;100.00
64844;BME280;51310;52.198;5.422;2023-02-13T05:26:46;103464.13;;;5.71;100.00
64844;BME280;51310;52.198;5.422;2023-02-13T05:29:11;103453.38;;;5.62;100.00
64844;BME280;51310;52.198;5.422;2023-02-13T05:31:50;103452.66;;;5.63;100.00
64844;BME280;51310;52.198;5.422;2023-02-13T05:34:18;103456.59;;;5.61;100.00
64844;BME280;51310;52.198;5.422;2023-02-13T05:36:44;103451.28;;;5.65;100.00
64844;BME280;51310;52.198;5.422;2023-02-13T05:39:10;103459.22;;;5.67;100.00
64844;BME280;51310;52.198;5.422;2023-02-13T05:41:35;103459.47;;;5.68;100.00
64844;BME280;51310;52.198;5.422;2023-02-13T05:44:01;103452.00;;;5.64;100.00
64844;BME280;51310;52.198;5.422;2023-02-13T05:46:27;103457.78;;;5.63;100.00
64844;BME280;51310;52.198;5.422;2023-02-13T05:48:52;103455.75;;;5.72;100.00
64844;BME280;51310;52.198;5.422;2023-02-13T05:51:19;103464.56;;;5.68;100.00
64844;BME280;51310;52.198;5.422;2023-02-13T05:53:45;103457.31;;;5.66;100.00
64844;BME280;51310;52.198;5.422;2023-02-13T05:56:10;103455.28;;;5.69;100.00
64844;BME280;51310;52.198;5.422;2023-02-13T05:58:36;103457.78;;;5.63;100.00
64844;BME280;51310;52.198;5.422;2023-02-13T06:01:03;103459.88;;;5.66;100.00
64844;BME280;51310;52.198;5.422;2023-02-13T06:03:30;103455.75;;;5.72;100.00
64844;BME280;51310;52.198;5.422;2023-02-13T06:05:57;103454.56;;;5.70;100.00
64844;BME280;51310;52.198;5.422;2023-02-13T06:08:23;103461.34;;;5.75;100.00
64844;BME280;51310;52.198;5.422;2023-02-13T06:10:50;103463.50;;;5.83;100.00
64844;BME280;51310;52.198;5.422;2023-02-13T06:13:17;103451.13;;;5.75;100.00
64844;BME280;51310;52.198;5.422;2023-02-13T06:15:43;103460.19;;;5.79;100.00
64844;BME280;51310;52.198;5.422;2023-02-13T06:18:10;103466.53;;;5.86;100.00
64844;BME280;51310;52.198;5.422;2023-02-13T06:20:36;103462.28;;;5.75;100.00
64844;BME280;51310;52.198;5.422;2023-02-13T06:23:02;103463.91;;;5.75;100.00
64844;BME280;51310;52.198;5.422;2023-02-13T06:25:28;103467.84;;;5.73;100.00
64844;BME280;51310;52.198;5.422;2023-02-13T06:27:54;103470.16;;;5.71;100.00
64844;BME280;51310;52.198;5.422;2023-02-13T06:30:21;103468.09;;;5.74;100.00
64844;BME280;51310;52.198;5.422;2023-02-13T06:32:47;103465.94;;;5.66;100.00
64844;BME280;51310;52.198;5.422;2023-02-13T06:35:14;103466.34;;;5.58;100.00
64844;BME280;51310;52.198;5.422;2023-02-13T06:37:41;103460.31;;;5.58;100.00
64844;BME280;51310;52.198;5.422;2023-02-13T06:40:12;103466.34;;;5.58;100.00
64844;BME280;51310;52.198;5.422;2023-02-13T06:42:38;103463.09;;;5.59;100.00
64844;BME280;51310;52.198;5.422;2023-02-13T06:45:05;103464.72;;;5.59;100.00
64844;BME280;51310;52.198;5.422;2023-02-13T06:47:31;103465.91;;;5.61;100.00
64844;BME280;51310;52.198;5.422;2023-02-13T06:49:57;103464.00;;;5.54;100.00
64844;BME280;51310;52.198;5.422;2023-02-13T06:52:22;103467.47;;;5.54;100.00
64844;BME280;51310;52.198;5.422;2023-02-13T06:54:48;103469.09;;;5.54;100.00
64844;BME280;51310;52.198;5.422;2023-02-13T06:57:15;103472.34;;;5.53;100.00
64844;BME280;51310;52.198;5.422;2023-02-13T06:59:41;103467.72;;;5.56;100.00
64844;BME280;51310;52.198;5.422;2023-02-13T07:02:10;103468.94;;;5.64;100.00
64844;BME280;51310;52.198;5.422;2023-02-13T07:04:36;103470.34;;;5.62;100.00
64844;BME280;51310;52.198;5.422;2023-02-13T07:07:01;103473.81;;;5.62;100.00
64844;BME280;51310;52.198;5.422;2023-02-13T07:09:27;103480.78;;;5.63;100.00
64844;BME280;51310;52.198;5.422;2023-02-13T07:11:53;103477.53;;;5.64;100.00
64844;BME280;51310;52.198;5.422;2023-02-13T07:14:19;103478.94;;;5.68;100.00
64844;BME280;51310;52.198;5.422;2023-02-13T07:16:44;103488.44;;;5.63;100.00
64844;BME280;51310;52.198;5.422;2023-02-13T07:19:10;103489.13;;;5.62;100.00
64844;BME280;51310;52.198;5.422;2023-02-13T07:21:36;103483.78;;;5.61;100.00
64844;BME280;51310;52.198;5.422;2023-02-13T07:24:03;103485.66;;;5.62;100.00
64844;BME280;51310;52.198;5.422;2023-02-13T07:26:29;103489.13;;;5.62;100.00
64844;BME280;51310;52.198;5.422;2023-02-13T07:28:55;103485.94;;;5.69;100.00
64844;BME280;51310;52.198;5.422;2023-02-13T07:31:21;103485.44;;;5.66;100.00
64844;BME280;51310;52.198;5.422;2023-02-13T07:33:50;103481.28;;;5.66;100.00
64844;BME280;51310;52.198;5.422;2023-02-13T07:36:16;103481.75;;;5.69;100.00
64844;BME280;51310;52.198;5.422;2023-02-13T07:38:42;103467.34;;;5.70;100.00
64844;BME280;51310;52.198;5.422;2023-02-13T07:41:08;103484.81;;;5.72;100.00
64844;BME280;51310;52.198;5.422;2023-02-13T07:43:33;103473.88;;;5.73;100.00
64844;BME280;51310;52.198;5.422;2023-02-13T07:46:01;103487.09;;;5.71;100.00
64844;BME280;51310;52.198;5.422;2023-02-13T07:48:28;103484.34;;;5.75;100.00
64844;BME280;51310;52.198;5.422;2023-02-13T07:51:00;103488.34;;;5.84;100.00
64844;BME280;51310;52.198;5.422;2023-02-13T07:53:26;103492.09;;;5.86;100.00
64844;BME280;51310;52.198;5.422;2023-02-13T07:55:52;103493.94;;;5.87;100.00
64844;BME280;51310;52.198;5.422;2023-02-13T07:58:17;103492.13;;;5.92;100.00
64844;BME280;51310;52.198;5.422;2023-02-13T08:00:43;103502.78;;;5.89;100.00
64844;BME280;51310;52.198;5.422;2023-02-13T08:03:09;103500.72;;;5.92;100.00
64844;BME280;51310;52.198;5.422;2023-02-13T08:05:35;103501.94;;;6.00;100.00
64844;BME280;51310;52.198;5.422;2023-02-13T08:08:02;103510.78;;;6.02;100.00
64844;BME280;51310;52.198;5.422;2023-02-13T08:10:27;103511.50;;;6.07;100.00
64844;BME280;51310;52.198;5.422;2023-02-13T08:13:13;103509.72;;;6.11;100.00
64844;BME280;51310;52.198;5.422;2023-02-13T08:15:40;103512.72;;;6.14;100.00
64844;BME280;51310;52.198;5.422;2023-02-13T08:18:06;103505.31;;;6.22;100.00
64844;BME280;51310;52.198;5.422;2023-02-13T08:20:31;103515.13;;;6.30;100.00
64844;BME280;51310;52.198;5.422;2023-02-13T08:23:09;103520.97;;;6.34;100.00
64844;BME280;51310;52.198;5.422;2023-02-13T08:25:37;103518.88;;;6.32;100.00
64844;BME280;51310;52.198;5.422;2023-02-13T08:28:04;103520.28;;;6.41;100.00
64844;BME280;51310;52.198;5.422;2023-02-13T08:30:30;103517.03;;;6.36;100.00
64844;BME280;51310;52.198;5.422;2023-02-13T08:32:56;103504.28;;;6.42;100.00
64844;BME280;51310;52.198;5.422;2023-02-13T08:35:22;103507.78;;;6.48;100.00
64844;BME280;51310;52.198;5.422;2023-02-13T08:37:52;103514.78;;;6.55;100.00
64844;BME280;51310;52.198;5.422;2023-02-13T08:40:18;103507.56;;;6.58;100.00
64844;BME280;51310;52.198;5.422;2023-02-13T08:42:43;103510.84;;;6.63;100.00
64844;BME280;51310;52.198;5.422;2023-02-13T08:45:09;103513.41;;;6.63;100.00
64844;BME280;51310;52.198;5.422;2023-02-13T08:47:37;103513.88;;;6.60;100.00
64844;BME280;51310;52.198;5.422;2023-02-13T08:50:03;103516.44;;;6.60;100.00
64844;BME280;51310;52.198;5.422;2023-02-13T08:52:32;103515.53;;;6.65;100.00
64844;BME280;51310;52.198;5.422;2023-02-13T08:54:58;103521.84;;;6.78;100.00
64844;BME280;51310;52.198;5.422;2023-02-13T08:57:24;103514.63;;;6.82;100.00
64844;BME280;51310;52.198;5.422;2023-02-13T08:59:49;103516.03;;;6.80;100.00
64844;BME280;51310;52.198;5.422;2023-02-13T09:02:15;103524.63;;;6.80;100.00
64844;BME280;51310;52.198;5.422;2023-02-13T09:04:41;103512.13;;;6.98;100.00
64844;BME280;51310;52.198;5.422;2023-02-13T09:07:06;103517.25;;;7.04;100.00
64844;BME280;51310;52.198;5.422;2023-02-13T09:09:32;103517.75;;;7.13;100.00
64844;BME280;51310;52.198;5.422;2023-02-13T09:11:58;103511.69;;;7.07;100.00
64844;BME280;51310;52.198;5.422;2023-02-13T09:14:25;103508.66;;;7.21;100.00
64844;BME280;51310;52.198;5.422;2023-02-13T09:16:51;103508.69;;;7.26;100.00
64844;BME280;51310;52.198;5.422;2023-02-13T09:19:17;103508.22;;;7.34;100.00
64844;BME280;51310;52.198;5.422;2023-02-13T09:21:42;103504.03;;;7.35;100.00
64844;BME280;51310;52.198;5.422;2023-02-13T09:24:09;103504.94;;;7.35;100.00
64844;BME280;51310;52.198;5.422;2023-02-13T09:26:35;103510.06;;;7.47;100.00
64844;BME280;51310;52.198;5.422;2023-02-13T09:29:01;103512.84;;;7.59;100.00
64844;BME280;51310;52.198;5.422;2023-02-13T09:31:27;103515.41;;;7.71;100.00
64844;BME280;51310;52.198;5.422;2023-02-13T09:33:53;103514.94;;;7.79;100.00
64844;BME280;51310;52.198;5.422;2023-02-13T09:36:22;103516.34;;;7.77;100.00
64844;BME280;51310;52.198;5.422;2023-02-13T09:38:54;103516.34;;;7.77;100.00
64844;BME280;51310;52.198;5.422;2023-02-13T09:41:28;103507.47;;;7.75;100.00
64844;BME280;51310;52.198;5.422;2023-02-13T09:44:35;103508.41;;;7.87;100.00
64844;BME280;51310;52.198;5.422;2023-02-13T09:49:46;103507.94;;;7.95;100.00
64844;BME280;51310;52.198;5.422;2023-02-13T09:52:13;103510.22;;;7.99;100.00
64844;BME280;51310;52.198;5.422;2023-02-13T09:54:39;103510.22;;;7.99;100.00
64844;BME280;51310;52.198;5.422;2023-02-13T09:57:27;103512.78;;;8.10;100.00
64844;BME280;51310;52.198;5.422;2023-02-13T10:00:36;103514.88;;;8.07;100.00
64844;BME280;51310;52.198;5.422;2023-02-13T10:03:03;103514.66;;;8.06;100.00
64844;BME280;51310;52.198;5.422;2023-02-13T10:11:30;103516.03;;;8.15;100.00
64844;BME280;51310;52.198;5.422;2023-02-13T10:14:20;103516.66;;;8.36;100.00
64844;BME280;51310;52.198;5.422;2023-02-13T10:17:10;103520.88;;;8.41;100.00
64844;BME280;51310;52.198;5.422;2023-02-13T10:19:48;103521.13;;;8.26;100.00
64844;BME280;51310;52.198;5.422;2023-02-13T10:22:25;103515.50;;;8.34;100.00
64844;BME280;51310;52.198;5.422;2023-02-13T10:25:07;103516.72;;;8.25;100.00
64844;BME280;51310;52.198;5.422;2023-02-13T10:27:43;103513.00;;;8.17;100.00
64844;BME280;51310;52.198;5.422;2023-02-13T10:30:20;103510.38;;;8.29;100.00
64844;BME280;51310;52.198;5.422;2023-02-13T10:33:00;103509.44;;;8.34;100.00
64844;BME280;51310;52.198;5.422;2023-02-13T10:36:15;103503.09;;;8.49;100.00
64844;BME280;51310;52.198;5.422;2023-02-13T10:38:59;103497.28;;;8.50;100.00
64844;BME280;51310;52.198;5.422;2023-02-13T10:44:25;103497.88;;;8.71;100.00
64844;BME280;51310;52.198;5.422;2023-02-13T10:55:58;103492.16;;;8.44;100.00
64844;BME280;51310;52.198;5.422;2023-02-13T11:04:10;103482.06;;;8.57;100.00
64844;BME280;51310;52.198;5.422;2023-02-13T11:06:42;103490.00;;;8.53;100.00
64844;BME280;51310;52.198;5.422;2023-02-13T11:09:09;103481.69;;;8.43;100.00
64844;BME280;51310;52.198;5.422;2023-02-13T11:11:40;103482.84;;;8.45;100.00
64844;BME280;51310;52.198;5.422;2023-02-13T11:17:00;103469.22;;;8.62;100.00
64844;BME280;51310;52.198;5.422;2023-02-13T11:19:33;103464.59;;;8.49;100.00
64844;BME280;51310;52.198;5.422;2023-02-13T11:22:37;103464.88;;;8.45;100.00
64844;BME280;51310;52.198;5.422;2023-02-13T11:25:17;103456.91;;;8.49;100.00
64844;BME280;51310;52.198;5.422;2023-02-13T11:27:47;103459.94;;;8.52;100.00
64844;BME280;51310;52.198;5.422;2023-02-13T11:30:30;103457.59;;;8.53;100.00
64844;BME280;51310;52.198;5.422;2023-02-13T11:33:04;103456.38;;;8.62;100.00
64844;BME280;51310;52.198;5.422;2023-02-13T11:35:34;103450.50;;;8.69;100.00
64844;BME280;51310;52.198;5.422;2023-02-13T11:40:50;103447.97;;;8.99;100.00
64844;BME280;51310;52.198;5.422;2023-02-13T11:43:29;103442.56;;;9.03;100.00
64844;BME280;51310;52.198;5.422;2023-02-13T11:46:15;103444.50;;;8.93;100.00
64844;BME280;51310;52.198;5.422;2023-02-13T11:48:56;103441.47;;;8.90;100.00
64844;BME280;51310;52.198;5.422;2023-02-13T11:51:44;103436.97;;;9.00;100.00
64844;BME280;51310;52.198;5.422;2023-02-13T11:54:41;103437.09;;;9.13;100.00
64844;BME280;51310;52.198;5.422;2023-02-13T11:57:21;103427.94;;;9.20;100.00
64844;BME280;51310;52.198;5.422;2023-02-13T11:59:51;103431.41;;;9.27;100.00
64844;BME280;51310;52.198;5.422;2023-02-13T12:02:28;103427.44;;;9.23;100.00
64844;BME280;51310;52.198;5.422;2023-02-13T12:05:24;103420.91;;;9.19;100.00
64844;BME280;51310;52.198;5.422;2023-02-13T12:07:51;103411.09;;;9.22;100.00
64844;BME280;51310;52.198;5.422;2023-02-13T12:10:24;103420.44;;;9.22;100.00
64844;BME280;51310;52.198;5.422;2023-02-13T12:13:13;103413.59;;;9.28;100.00
64844;BME280;51310;52.198;5.422;2023-02-13T12:15:46;103406.72;;;9.40;100.00
64844;BME280;51310;52.198;5.422;2023-02-13T12:18:33;103413.03;;;9.42;100.00
64844;BME280;51310;52.198;5.422;2023-02-13T12:21:05;103413.41;;;9.51;100.00
64844;BME280;51310;52.198;5.422;2023-02-13T12:26:43;103414.25;;;9.33;100.00
64844;BME280;51310;52.198;5.422;2023-02-13T12:29:33;103414.47;;;9.34;100.00
64844;BME280;51310;52.198;5.422;2023-02-13T12:32:41;103411.16;;;9.41;100.00
64844;BME280;51310;52.198;5.422;2023-02-13T12:35:34;103416.91;;;9.51;100.00
64844;BME280;51310;52.198;5.422;2023-02-13T12:53:09;103397.56;;;9.66;100.00
64844;BME280;51310;52.198;5.422;2023-02-13T13:02:23;103390.38;;;9.63;100.00
64844;BME280;51310;52.198;5.422;2023-02-13T13:08:16;103386.13;;;9.64;100.00
64844;BME280;51310;52.198;5.422;2023-02-13T13:16:12;103370.44;;;9.68;100.00
64844;BME280;51310;52.198;5.422;2023-02-13T13:19:06;103372.22;;;9.75;100.00
64844;BME280;51310;52.198;5.422;2023-02-13T13:21:47;103362.00;;;9.69;100.00
64844;BME280;51310;52.198;5.422;2023-02-13T13:25:07;103361.22;;;9.76;100.00
64844;BME280;51310;52.198;5.422;2023-02-13T13:27:43;103361.16;;;9.81;100.00
64844;BME280;51310;52.198;5.422;2023-02-13T13:30:22;103355.28;;;9.82;100.00
64844;BME280;51310;52.198;5.422;2023-02-13T13:33:02;103342.56;;;9.71;100.00
64844;BME280;51310;52.198;5.422;2023-02-13T13:35:31;103352.06;;;9.78;100.00
64844;BME280;51310;52.198;5.422;2023-02-13T13:38:13;103349.22;;;9.82;100.00
64844;BME280;51310;52.198;5.422;2023-02-13T13:46:23;103339.91;;;9.95;100.00
64844;BME280;51310;52.198;5.422;2023-02-13T13:49:34;103335.38;;;9.87;100.00
64844;BME280;51310;52.198;5.422;2023-02-13T13:52:29;103330.94;;;9.86;100.00
64844;BME280;51310;52.198;5.422;2023-02-13T13:54:59;103329.44;;;9.94;100.00
64844;BME280;51310;52.198;5.422;2023-02-13T14:00:26;103324.75;;;9.91;100.00
64844;BME280;51310;52.198;5.422;2023-02-13T14:03:21;103325.00;;;9.93;100.00
64844;BME280;51310;52.198;5.422;2023-02-13T14:06:07;103324.41;;;10.01;100.00
64844;BME280;51310;52.198;5.422;2023-02-13T14:13:51;103311.63;;;9.95;100.00
64844;BME280;51310;52.198;5.422;2023-02-13T14:16:43;103311.16;;;9.98;100.00
64844;BME280;51310;52.198;5.422;2023-02-13T14:19:36;103319.28;;;10.01;100.00
64844;BME280;51310;52.198;5.422;2023-02-13T14:24:54;103304.69;;;9.89;100.00
64844;BME280;51310;52.198;5.422;2023-02-13T14:27:24;103300.97;;;9.86;100.00
64844;BME280;51310;52.198;5.422;2023-02-13T14:29:52;103306.47;;;9.95;100.00
64844;BME280;51310;52.198;5.422;2023-02-13T14:32:32;103306.34;;;9.88;100.00
64844;BME280;51310;52.198;5.422;2023-02-13T14:35:05;103297.91;;;9.89;100.00
64844;BME280;51310;52.198;5.422;2023-02-13T14:37:50;103306.97;;;9.93;100.00
64844;BME280;51310;52.198;5.422;2023-02-13T14:43:02;103313.19;;;9.82;100.00
64844;BME280;51310;52.198;5.422;2023-02-13T14:45:39;103302.41;;;9.84;100.00
64844;BME280;51310;52.198;5.422;2023-02-13T14:48:13;103299.13;;;9.85;100.00
64844;BME280;51310;52.198;5.422;2023-02-13T14:50:52;103296.56;;;9.85;100.00
64844;BME280;51310;52.198;5.422;2023-02-13T14:53:45;103300.47;;;9.89;100.00
64844;BME280;51310;52.198;5.422;2023-02-13T14:56:16;103298.63;;;9.88;100.00
64844;BME280;51310;52.198;5.422;2023-02-13T14:58:54;103294.22;;;9.87;100.00
64844;BME280;51310;52.198;5.422;2023-02-13T15:01:34;103291.19;;;9.84;100.00
64844;BME280;51310;52.198;5.422;2023-02-13T15:04:18;103292.91;;;9.78;100.00
64844;BME280;51310;52.198;5.422;2023-02-13T15:06:47;103288.72;;;9.78;100.00
64844;BME280;51310;52.198;5.422;2023-02-13T15:09:40;103295.34;;;9.71;100.00
64844;BME280;51310;52.198;5.422;2023-02-13T15:12:34;103294.34;;;9.76;100.00
64844;BME280;51310;52.198;5.422;2023-02-13T15:15:21;103294.56;;;9.77;100.00
64844;BME280;51310;52.198;5.422;2023-02-13T15:17:48;103297.19;;;9.72;100.00
64844;BME280;51310;52.198;5.422;2023-02-13T15:20:25;103290.91;;;9.70;100.00
64844;BME280;51310;52.198;5.422;2023-02-13T15:22:53;103294.00;;;9.67;100.00
64844;BME280;51310;52.198;5.422;2023-02-13T15:27:54;103287.78;;;9.59;100.00
64844;BME280;51310;52.198;5.422;2023-02-13T15:30:30;103280.22;;;9.67;100.00
64844;BME280;51310;52.198;5.422;2023-02-13T15:33:11;103287.06;;;9.60;100.00
64844;BME280;51310;52.198;5.422;2023-02-13T15:35:40;103288.34;;;9.51;100.00